Time;durP1;ratioP1;P1;durP2;ratioP2;P2;SDS_P1;SDS_P2;PMS_P1;PMS_P2;Temp;Humidity;BMP_temperature;BMP_pressure;BME280_temperature;BME280_humidity;BME280_pressure;Samples;Min_cycle;Max_cycle;Signal;HPM_P1;HPM_P2
2022/09/19 03:55:43;;;;;;;;;;;22.20;60.00;;;;;;5015036;28;19928;-76
2022/09/19 03:58:10;;;;;;;;;;;22.20;60.10;;;;;;5015211;28;19925;-76
2022/09/19 04:00:37;;;;;;;;;;;22.20;60.20;;;;;;5015047;28;19979;-76
2022/09/19 04:03:03;;;;;;;;;;;22.20;60.20;;;;;;5015175;28;19931;-78
2022/09/19 04:05:32;;;;;;;;;;;22.20;60.30;;;;;;5014980;28;19932;-75
2022/09/19 04:07:58;;;;;;;;;;;22.20;60.40;;;;;;5014798;28;19975;-75
2022/09/19 04:10:26;;;;;;;;;;;22.20;60.40;;;;;;5014658;28;20008;-75
2022/09/19 04:12:56;;;;;;;;;;;22.20;60.50;;;;;;5015681;28;20020;-79
2022/09/19 04:15:22;;;;;;;;;;;22.20;60.60;;;;;;5015630;28;19933;-75
2022/09/19 04:17:49;;;;;;;;;;;22.20;60.60;;;;;;5014503;28;19935;-74
2022/09/19 04:20:16;;;;;;;;;;;22.20;60.70;;;;;;5014356;28;20016;-75
2022/09/19 04:22:43;;;;;;;;;;;22.20;60.80;;;;;;5014202;28;19925;-77
2022/09/19 04:25:10;;;;;;;;;;;22.20;61.00;;;;;;5014444;28;19931;-76
2022/09/19 04:27:37;;;;;;;;;;;22.20;61.10;;;;;;5013981;28;19926;-76
2022/09/19 04:30:06;;;;;;;;;;;22.20;61.20;;;;;;5014461;28;19948;-76
2022/09/19 04:32:33;;;;;;;;;;;22.20;61.20;;;;;;5014464;28;19925;-77
2022/09/19 04:35:00;;;;;;;;;;;22.20;61.30;;;;;;5014763;28;20028;-77
2022/09/19 04:37:28;;;;;;;;;;;22.20;61.30;;;;;;5014392;28;19933;-75
2022/09/19 04:39:55;;;;;;;;;;;22.20;61.30;;;;;;5014298;28;19932;-75
2022/09/19 04:42:21;;;;;;;;;;;22.20;61.00;;;;;;5014387;28;20024;-76
2022/09/19 04:44:48;;;;;;;;;;;22.10;60.90;;;;;;5014491;28;20024;-76
2022/09/19 04:47:16;;;;;;;;;;;22.10;60.90;;;;;;5014039;28;20445;-75
2022/09/19 04:49:43;;;;;;;;;;;22.10;60.80;;;;;;5014038;28;20300;-74
2022/09/19 04:52:10;;;;;;;;;;;22.10;60.80;;;;;;5014373;28;20468;-73
2022/09/19 04:54:37;;;;;;;;;;;22.10;60.60;;;;;;5014347;28;20028;-72
2022/09/19 04:57:05;;;;;;;;;;;22.00;60.30;;;;;;5014123;28;20024;-73
2022/09/19 04:59:33;;;;;;;;;;;22.00;60.10;;;;;;5014206;28;19925;-73
2022/09/19 05:02:00;;;;;;;;;;;22.00;59.80;;;;;;5013846;28;19984;-73
2022/09/19 05:04:28;;;;;;;;;;;21.90;59.60;;;;;;5015241;28;19925;-73
2022/09/19 05:06:54;;;;;;;;;;;21.90;59.40;;;;;;5014183;28;19933;-73
2022/09/19 05:09:22;;;;;;;;;;;21.90;59.10;;;;;;5014304;28;19932;-73
2022/09/19 05:11:48;;;;;;;;;;;21.90;58.80;;;;;;5014287;28;19983;-72
2022/09/19 10:10:40;;;;;;;;;;;21.80;48.60;;;;;;4979350;28;19958;-80
2022/09/19 10:13:11;;;;;;;;;;;21.80;48.40;;;;;;4980457;28;19926;-78
2022/09/19 10:15:39;;;;;;;;;;;21.80;48.20;;;;;;4978170;28;20016;-75
2022/09/19 10:18:09;;;;;;;;;;;21.80;48.10;;;;;;4977578;28;19933;-75
2022/09/19 10:20:38;;;;;;;;;;;21.80;48.00;;;;;;4957625;28;20374;-74
2022/09/19 10:23:05;;;;;;;;;;;21.80;47.90;;;;;;4958638;28;19974;-75
2022/09/19 10:25:31;;;;;;;;;;;21.80;48.50;;;;;;4957759;28;19969;-75
2022/09/19 10:28:02;;;;;;;;;;;21.80;47.80;;;;;;4958058;28;19926;-75
2022/09/19 10:30:32;;;;;;;;;;;21.80;47.70;;;;;;4957580;28;19933;-75
2022/09/19 10:33:03;;;;;;;;;;;21.80;47.60;;;;;;4958054;28;19927;-75
2022/09/19 10:35:31;;;;;;;;;;;21.80;47.60;;;;;;4958584;28;19977;-74
2022/09/19 10:38:02;;;;;;;;;;;21.80;47.50;;;;;;4957926;28;20408;-75
2022/09/19 10:40:29;;;;;;;;;;;21.80;47.40;;;;;;4957737;28;20002;-75
2022/09/19 10:42:56;;;;;;;;;;;21.80;47.40;;;;;;4958217;28;19965;-75
2022/09/19 10:45:26;;;;;;;;;;;21.80;47.40;;;;;;4957788;28;20003;-76
2022/09/19 10:47:54;;;;;;;;;;;21.80;47.30;;;;;;4958248;28;19933;-76
2022/09/19 10:50:21;;;;;;;;;;;21.80;47.20;;;;;;4957947;28;20378;-76
2022/09/19 10:52:48;;;;;;;;;;;21.80;47.20;;;;;;4958020;28;19970;-77
2022/09/19 10:55:20;;;;;;;;;;;21.80;47.10;;;;;;4957935;28;19926;-76
2022/09/19 10:57:49;;;;;;;;;;;21.80;47.10;;;;;;4957904;28;19930;-75
2022/09/19 11:00:23;;;;;;;;;;;21.80;47.00;;;;;;4958471;28;19927;-75
2022/09/19 11:03:02;;;;;;;;;;;21.80;47.00;;;;;;4958533;28;19933;-78
2022/09/19 11:05:30;;;;;;;;;;;21.90;47.00;;;;;;4960279;28;19926;-79
2022/09/19 11:07:59;;;;;;;;;;;21.90;47.00;;;;;;4961441;28;19926;-80
2022/09/19 11:10:33;;;;;;;;;;;21.90;47.00;;;;;;4960464;28;19970;-80
2022/09/19 11:13:22;;;;;;;;;;;21.90;47.00;;;;;;4961419;28;19933;-80
2022/09/19 11:15:55;;;;;;;;;;;21.90;47.60;;;;;;4956212;28;19949;-80
2022/09/19 11:18:30;;;;;;;;;;;21.90;47.10;;;;;;4960711;28;19973;-79
2022/09/19 11:21:07;;;;;;;;;;;21.90;47.10;;;;;;4961848;28;19926;-80
2022/09/19 11:23:40;;;;;;;;;;;22.00;47.20;;;;;;4960802;28;20374;-80
2022/09/19 11:26:14;;;;;;;;;;;22.00;47.30;;;;;;4960659;28;20022;-80
2022/09/19 11:28:48;;;;;;;;;;;22.00;47.90;;;;;;4957924;28;19927;-77
2022/09/19 11:31:19;;;;;;;;;;;22.00;47.30;;;;;;4956310;28;20398;-77
2022/09/19 11:33:55;;;;;;;;;;;22.00;47.30;;;;;;4957024;28;19936;-77
2022/09/19 11:36:28;;;;;;;;;;;22.00;47.40;;;;;;4957751;28;19934;-77
2022/09/19 11:39:00;;;;;;;;;;;22.00;47.40;;;;;;4958201;28;19926;-79
2022/09/19 11:41:32;;;;;;;;;;;22.00;47.40;;;;;;4957473;28;19958;-77
2022/09/19 11:44:08;;;;;;;;;;;22.00;47.40;;;;;;4958649;28;19933;-80
2022/09/19 11:46:41;;;;;;;;;;;22.00;47.50;;;;;;4957072;28;20406;-77
2022/09/19 11:49:19;;;;;;;;;;;22.10;47.50;;;;;;4956853;28;19926;-77
2022/09/19 11:51:50;;;;;;;;;;;22.10;47.50;;;;;;4957165;28;19927;-77
2022/09/19 11:54:40;;;;;;;;;;;22.10;47.50;;;;;;4956991;28;19926;-78
2022/09/19 11:57:13;;;;;;;;;;;22.10;47.60;;;;;;4956987;29;19926;-77
2022/09/19 12:00:00;;;;;;;;;;;22.10;47.50;;;;;;4957185;28;19927;-77
2022/09/19 12:02:44;;;;;;;;;;;22.10;47.50;;;;;;4958434;28;19930;-78
2022/09/19 12:05:17;;;;;;;;;;;22.10;47.50;;;;;;4955537;29;19926;-79
2022/09/19 12:07:48;;;;;;;;;;;22.10;47.50;;;;;;4958566;28;20285;-79
2022/09/19 12:10:18;;;;;;;;;;;22.10;47.50;;;;;;4959312;28;20018;-78
2022/09/19 12:12:48;;;;;;;;;;;22.10;47.50;;;;;;4961601;28;20419;-79
2022/09/19 12:15:22;;;;;;;;;;;22.10;47.40;;;;;;4959228;28;19928;-78
2022/09/19 12:17:53;;;;;;;;;;;22.10;47.40;;;;;;4957766;28;19927;-78
2022/09/19 12:20:23;;;;;;;;;;;22.10;47.30;;;;;;4957949;28;19977;-78
2022/09/19 12:22:53;;;;;;;;;;;22.10;47.30;;;;;;4958204;28;19930;-78
2022/09/19 12:25:20;;;;;;;;;;;22.10;47.20;;;;;;4957666;28;19933;-78
2022/09/19 12:27:50;;;;;;;;;;;22.10;47.20;;;;;;4957365;28;19977;-78
2022/09/19 12:30:18;;;;;;;;;;;22.10;47.20;;;;;;4957473;28;19926;-78
2022/09/19 12:32:47;;;;;;;;;;;22.10;47.20;;;;;;4957276;28;20322;-79
2022/09/19 12:35:20;;;;;;;;;;;22.10;47.10;;;;;;4958203;29;19926;-76
2022/09/19 12:37:55;;;;;;;;;;;22.10;47.10;;;;;;4958751;28;19969;-77
2022/09/19 12:40:28;;;;;;;;;;;22.10;47.10;;;;;;4956903;28;20394;-77
2022/09/19 12:42:58;;;;;;;;;;;22.10;47.00;;;;;;4957145;28;20375;-78
2022/09/19 12:45:28;;;;;;;;;;;22.10;47.00;;;;;;4957633;28;20021;-78
2022/09/19 12:48:00;;;;;;;;;;;22.10;47.00;;;;;;4957350;28;19926;-76
2022/09/19 12:50:32;;;;;;;;;;;22.10;46.90;;;;;;4957269;28;19931;-76
2022/09/19 12:53:07;;;;;;;;;;;22.10;46.90;;;;;;4956241;28;20029;-77
2022/09/19 12:55:38;;;;;;;;;;;22.10;46.90;;;;;;4956610;28;20423;-76
2022/09/19 12:58:07;;;;;;;;;;;22.10;46.80;;;;;;4957252;28;20382;-76
2022/09/19 13:00:39;;;;;;;;;;;22.10;46.80;;;;;;4957125;28;20322;-77
2022/09/19 13:03:07;;;;;;;;;;;22.10;46.70;;;;;;4957377;28;20025;-77
2022/09/19 13:05:37;;;;;;;;;;;22.10;46.70;;;;;;4957138;28;19926;-77
2022/09/19 13:08:07;;;;;;;;;;;22.10;46.60;;;;;;4957129;28;19948;-77
2022/09/19 13:10:40;;;;;;;;;;;22.10;46.60;;;;;;4956716;28;20009;-77
2022/09/19 13:13:12;;;;;;;;;;;22.10;46.50;;;;;;4957117;28;20382;-77
2022/09/19 13:15:43;;;;;;;;;;;22.10;46.50;;;;;;4956324;28;19934;-77
2022/09/19 13:23:44;;;;;;;;;;;22.10;46.40;;;;;;4956048;29;19929;-77
2022/09/19 13:26:24;;;;;;;;;;;22.00;46.20;;;;;;4956235;28;19926;-77
2022/09/19 13:28:52;;;;;;;;;;;22.00;46.20;;;;;;4955568;28;20025;-77
2022/09/19 13:31:19;;;;;;;;;;;22.00;46.20;;;;;;4956142;28;20302;-76
2022/09/19 13:33:50;;;;;;;;;;;22.10;46.30;;;;;;4958213;28;20310;-78
2022/09/19 13:36:36;;;;;;;;;;;22.10;46.30;;;;;;4955874;28;19947;-78
2022/09/19 13:39:07;;;;;;;;;;;22.10;46.30;;;;;;4957524;28;20017;-79
2022/09/19 13:41:36;;;;;;;;;;;22.10;46.30;;;;;;4955742;28;19926;-77
2022/09/19 13:44:13;;;;;;;;;;;22.10;46.30;;;;;;4955582;28;19926;-77
2022/09/19 13:46:43;;;;;;;;;;;22.10;46.30;;;;;;4955552;28;20343;-77
2022/09/19 13:49:14;;;;;;;;;;;22.10;46.30;;;;;;4955443;28;19926;-77
2022/09/19 13:51:42;;;;;;;;;;;22.10;46.30;;;;;;4955567;28;19926;-77
2022/09/19 13:54:27;;;;;;;;;;;22.10;46.30;;;;;;4955215;28;20373;-77
2022/09/19 13:57:06;;;;;;;;;;;22.10;46.20;;;;;;4958708;29;19933;-77
2022/09/19 13:59:37;;;;;;;;;;;22.10;46.20;;;;;;4958890;28;19930;-77
2022/09/19 14:02:14;;;;;;;;;;;22.10;46.20;;;;;;4959420;28;19931;-77
2022/09/19 14:04:57;;;;;;;;;;;22.10;46.20;;;;;;4958974;28;19981;-77
2022/09/19 14:07:27;;;;;;;;;;;22.10;46.20;;;;;;4958840;28;20026;-77
2022/09/19 14:09:54;;;;;;;;;;;22.10;46.20;;;;;;4958494;28;19926;-77
2022/09/19 14:12:49;;;;;;;;;;;22.10;46.20;;;;;;4958791;28;19926;-77
2022/09/19 14:15:31;;;;;;;;;;;22.10;46.20;;;;;;4963767;29;19927;-77
2022/09/19 14:18:20;;;;;;;;;;;22.10;46.20;;;;;;4959142;28;19962;-77
2022/09/19 14:20:49;;;;;;;;;;;22.10;46.20;;;;;;4958519;28;19926;-77
2022/09/19 14:23:16;;;;;;;;;;;22.10;46.20;;;;;;4958254;28;20394;-77
2022/09/19 14:25:46;;;;;;;;;;;22.10;46.20;;;;;;4958490;28;19926;-76
2022/09/19 14:28:37;;;;;;;;;;;22.10;46.20;;;;;;4958076;28;20026;-76
2022/09/19 14:31:22;;;;;;;;;;;22.10;46.20;;;;;;4958499;28;19971;-76
2022/09/19 14:34:19;;;;;;;;;;;22.10;46.20;;;;;;4958388;28;20317;-76
2022/09/19 14:37:04;;;;;;;;;;;22.00;46.10;;;;;;4958007;28;19926;-76
2022/09/19 14:39:54;;;;;;;;;;;22.00;46.20;;;;;;4958026;28;19961;-76
2022/09/19 14:42:47;;;;;;;;;;;22.10;46.20;;;;;;4943504;28;20029;-76
2022/09/19 14:45:25;;;;;;;;;;;22.00;46.20;;;;;;4957921;28;19933;-76
2022/09/19 14:47:55;;;;;;;;;;;22.00;46.20;;;;;;4958138;28;20021;-76
2022/09/19 14:50:23;;;;;;;;;;;22.00;46.20;;;;;;4957941;28;19980;-76
2022/09/19 14:52:59;;;;;;;;;;;22.00;46.20;;;;;;4958277;28;19933;-76
2022/09/19 14:55:27;;;;;;;;;;;22.00;46.20;;;;;;4958009;28;19977;-76
2022/09/19 14:57:54;;;;;;;;;;;22.00;46.20;;;;;;4957613;28;19930;-77
2022/09/19 15:00:27;;;;;;;;;;;22.00;46.20;;;;;;4957868;28;20021;-77
2022/09/19 15:02:56;;;;;;;;;;;22.00;46.30;;;;;;4957858;28;19981;-77
2022/09/19 15:05:26;;;;;;;;;;;22.00;46.30;;;;;;4957167;28;20450;-77
2022/09/19 15:07:53;;;;;;;;;;;22.00;46.30;;;;;;4956579;28;20025;-77
2022/09/19 15:10:30;;;;;;;;;;;22.00;46.30;;;;;;4957153;28;19926;-77
2022/09/19 15:12:57;;;;;;;;;;;22.00;46.30;;;;;;4957769;28;20029;-77
2022/09/19 15:15:27;;;;;;;;;;;22.00;46.30;;;;;;4957557;28;20031;-77
2022/09/19 15:17:55;;;;;;;;;;;22.00;46.30;;;;;;4957474;28;19961;-77
2022/09/19 15:20:22;;;;;;;;;;;22.00;46.40;;;;;;4957365;28;19927;-76
2022/09/19 15:22:51;;;;;;;;;;;22.00;46.40;;;;;;4957366;28;19930;-76
2022/09/19 15:25:21;;;;;;;;;;;22.00;46.40;;;;;;4957064;28;20366;-75
2022/09/19 15:27:51;;;;;;;;;;;22.00;46.40;;;;;;4957347;28;19993;-75
2022/09/19 15:30:20;;;;;;;;;;;22.00;46.40;;;;;;4959593;28;20441;-76
2022/09/19 15:32:48;;;;;;;;;;;22.00;46.40;;;;;;4961922;28;19930;-76
2022/09/19 15:35:18;;;;;;;;;;;22.00;46.40;;;;;;4962434;28;19927;-76
2022/09/19 15:37:46;;;;;;;;;;;21.90;46.40;;;;;;4961202;29;20302;-76
2022/09/19 15:40:15;;;;;;;;;;;22.00;46.50;;;;;;4961432;28;19930;-76
2022/09/19 15:42:44;;;;;;;;;;;22.00;46.50;;;;;;4961180;28;19927;-76
2022/09/19 15:45:30;;;;;;;;;;;22.00;46.50;;;;;;4962285;28;20421;-76
2022/09/19 15:47:58;;;;;;;;;;;22.00;46.50;;;;;;4961068;29;19962;-77
2022/09/19 15:50:28;;;;;;;;;;;22.00;46.60;;;;;;4962409;28;19926;-77
2022/09/19 15:52:55;;;;;;;;;;;21.90;46.50;;;;;;4962328;28;19927;-77
2022/09/19 15:55:29;;;;;;;;;;;21.90;46.50;;;;;;4961630;28;19934;-76
2022/09/19 15:57:58;;;;;;;;;;;21.90;47.10;;;;;;4960047;28;19950;-76
2022/09/19 16:00:27;;;;;;;;;;;21.90;46.60;;;;;;4961286;28;19958;-76
2022/09/19 16:02:55;;;;;;;;;;;21.90;46.60;;;;;;4960952;28;19937;-76
2022/09/19 16:05:23;;;;;;;;;;;21.90;46.60;;;;;;4961702;28;19926;-76
2022/09/19 16:10:38;;;;;;;;;;;21.90;46.70;;;;;;4961561;29;19933;-76
2022/09/19 16:13:26;;;;;;;;;;;21.90;46.70;;;;;;4961515;28;20338;-76
2022/09/19 16:15:55;;;;;;;;;;;21.90;46.70;;;;;;4960895;28;19949;-77
2022/09/19 16:18:23;;;;;;;;;;;21.90;46.70;;;;;;4961258;28;19930;-77
2022/09/19 16:20:51;;;;;;;;;;;21.90;46.80;;;;;;4961869;28;19933;-76
2022/09/19 16:23:19;;;;;;;;;;;21.90;46.80;;;;;;4961619;28;20372;-77
2022/09/19 16:25:48;;;;;;;;;;;21.90;46.80;;;;;;4957261;28;19969;-77
2022/09/19 16:28:17;;;;;;;;;;;21.90;46.90;;;;;;4956285;28;20012;-76
2022/09/19 16:30:51;;;;;;;;;;;21.90;46.90;;;;;;4956241;28;19977;-75
2022/09/19 16:33:19;;;;;;;;;;;21.90;46.90;;;;;;4959324;28;20009;-76
2022/09/19 16:35:46;;;;;;;;;;;21.90;47.00;;;;;;4956205;28;19927;-76
2022/09/19 16:38:20;;;;;;;;;;;21.90;47.00;;;;;;4955777;28;19926;-76
2022/09/19 16:40:53;;;;;;;;;;;21.90;47.00;;;;;;4956343;28;19926;-76
2022/09/19 16:43:45;;;;;;;;;;;21.90;47.00;;;;;;4956518;28;19926;-76
2022/09/19 16:46:12;;;;;;;;;;;21.90;47.10;;;;;;4941759;28;19981;-76
2022/09/19 16:48:42;;;;;;;;;;;21.90;47.10;;;;;;4956323;28;20014;-77
2022/09/19 16:51:12;;;;;;;;;;;21.80;47.10;;;;;;4955888;28;19930;-76
2022/09/19 16:53:39;;;;;;;;;;;21.90;47.10;;;;;;4956699;28;19931;-76
2022/09/19 16:56:05;;;;;;;;;;;21.90;47.10;;;;;;4956957;28;20378;-76
2022/09/19 16:58:33;;;;;;;;;;;21.80;47.00;;;;;;4957364;28;20005;-77
2022/09/19 17:01:00;;;;;;;;;;;21.80;47.00;;;;;;4957753;28;19981;-77
2022/09/19 17:03:26;;;;;;;;;;;21.80;47.00;;;;;;4956365;28;20461;-77
2022/09/19 17:05:55;;;;;;;;;;;21.80;47.00;;;;;;4956559;28;20405;-76
2022/09/19 17:08:22;;;;;;;;;;;21.80;46.90;;;;;;4957089;28;20013;-76
2022/09/19 17:10:48;;;;;;;;;;;21.80;46.90;;;;;;4956597;28;19930;-76
2022/09/19 17:13:15;;;;;;;;;;;21.80;47.00;;;;;;4956974;28;19927;-75
2022/09/19 17:15:43;;;;;;;;;;;21.80;46.90;;;;;;4957254;28;20461;-75
2022/09/19 17:18:10;;;;;;;;;;;21.80;46.90;;;;;;4956599;28;20354;-76
2022/09/19 17:20:37;;;;;;;;;;;21.30;46.50;;;;;;4956059;28;19926;-77
2022/09/19 17:23:06;;;;;;;;;;;21.80;46.90;;;;;;4955910;28;19980;-77
2022/09/19 17:25:38;;;;;;;;;;;21.80;47.00;;;;;;4956478;28;19981;-77
2022/09/19 17:28:05;;;;;;;;;;;21.80;46.90;;;;;;4956199;28;19930;-75
2022/09/19 17:30:32;;;;;;;;;;;21.80;47.00;;;;;;4960742;28;20013;-79
2022/09/19 17:32:59;;;;;;;;;;;21.80;47.00;;;;;;4961684;28;19938;-80
2022/09/19 17:35:29;;;;;;;;;;;21.80;47.00;;;;;;4961297;28;19965;-79
2022/09/19 17:37:55;;;;;;;;;;;21.80;47.00;;;;;;4961765;28;20444;-79
2022/09/19 17:40:26;;;;;;;;;;;21.90;47.10;;;;;;4962147;28;19926;-79
2022/09/19 17:42:52;;;;;;;;;;;21.90;47.10;;;;;;4961970;29;19926;-79
2022/09/19 17:45:24;;;;;;;;;;;21.90;47.10;;;;;;4962168;28;20450;-78
2022/09/19 17:47:51;;;;;;;;;;;21.90;47.20;;;;;;4962503;28;19927;-78
2022/09/19 17:50:24;;;;;;;;;;;21.90;47.20;;;;;;4966019;28;20465;-78
2022/09/19 17:52:51;;;;;;;;;;;21.90;47.30;;;;;;4966196;28;19933;-78
2022/09/19 17:55:19;;;;;;;;;;;21.90;47.30;;;;;;4965393;28;19930;-77
2022/09/19 17:57:50;;;;;;;;;;;21.90;47.40;;;;;;4965178;28;19933;-77
2022/09/19 18:00:18;;;;;;;;;;;21.90;47.40;;;;;;4962919;28;19933;-79
2022/09/19 18:05:31;;;;;;;;;;;21.90;47.60;;;;;;4962222;29;19960;-79
2022/09/19 18:07:57;;;;;;;;;;;21.90;47.70;;;;;;4962439;28;19933;-79
2022/09/19 18:10:25;;;;;;;;;;;21.90;47.80;;;;;;4962521;28;20357;-80
2022/09/19 18:12:54;;;;;;;;;;;22.10;48.00;;;;;;4962542;28;20298;-80
2022/09/19 18:15:21;;;;;;;;;;;21.90;47.90;;;;;;4963300;28;20297;-79
2022/09/19 18:17:48;;;;;;;;;;;22.00;48.10;;;;;;4962442;28;20005;-79
2022/09/19 18:20:15;;;;;;;;;;;22.00;48.20;;;;;;4961785;28;20339;-79
2022/09/19 18:22:42;;;;;;;;;;;22.00;48.30;;;;;;4961185;28;19926;-77
2022/09/19 18:25:14;;;;;;;;;;;22.00;48.50;;;;;;4958924;28;20309;-77
2022/09/19 18:27:41;;;;;;;;;;;22.00;48.60;;;;;;4958854;28;19973;-77
2022/09/19 18:30:10;;;;;;;;;;;22.00;48.80;;;;;;4958560;28;19969;-77
2022/09/19 18:32:37;;;;;;;;;;;22.10;48.90;;;;;;4960389;28;19988;-77
2022/09/19 18:35:03;;;;;;;;;;;22.10;48.90;;;;;;4963994;28;20357;-79
2022/09/19 18:37:30;;;;;;;;;;;22.10;48.90;;;;;;4965198;28;20013;-77
2022/09/19 18:39:57;;;;;;;;;;;22.10;48.90;;;;;;4958668;28;20022;-76
2022/09/19 18:42:24;;;;;;;;;;;22.10;48.90;;;;;;4960483;28;20017;-77
2022/09/19 18:44:50;;;;;;;;;;;22.10;48.90;;;;;;4960173;28;20470;-77
2022/09/19 18:47:18;;;;;;;;;;;22.10;49.00;;;;;;4960715;28;19926;-77
2022/09/19 18:49:45;;;;;;;;;;;22.10;49.20;;;;;;4960698;28;19973;-78
2022/09/19 18:52:12;;;;;;;;;;;22.10;49.30;;;;;;4960795;28;19926;-77
2022/09/19 18:54:38;;;;;;;;;;;22.10;49.40;;;;;;4958600;28;19966;-75
2022/09/19 18:57:05;;;;;;;;;;;22.10;49.50;;;;;;4957960;28;19977;-75
2022/09/19 18:59:32;;;;;;;;;;;22.10;49.60;;;;;;4957456;28;20371;-75
2022/09/19 19:01:58;;;;;;;;;;;22.00;49.60;;;;;;4957765;28;20017;-75
2022/09/19 19:04:26;;;;;;;;;;;22.00;49.80;;;;;;4957780;28;20301;-75
2022/09/19 19:06:54;;;;;;;;;;;22.10;49.90;;;;;;4957880;28;19927;-77
2022/09/19 19:09:20;;;;;;;;;;;22.10;49.90;;;;;;4958051;28;19926;-77
2022/09/19 19:11:48;;;;;;;;;;;22.10;49.90;;;;;;4957686;28;19932;-75
2022/09/19 19:14:16;;;;;;;;;;;22.00;49.90;;;;;;4956939;28;20397;-75
2022/09/19 19:16:43;;;;;;;;;;;22.00;49.90;;;;;;4957429;28;19932;-75
2022/09/19 19:19:10;;;;;;;;;;;22.00;49.90;;;;;;4957412;28;20326;-74
2022/09/19 19:21:40;;;;;;;;;;;22.00;49.90;;;;;;4957132;28;19926;-74
2022/09/19 19:24:08;;;;;;;;;;;22.00;50.00;;;;;;4957415;28;19984;-75
2022/09/19 19:26:36;;;;;;;;;;;22.00;50.00;;;;;;4957317;28;20367;-75
2022/09/19 19:29:02;;;;;;;;;;;22.00;50.00;;;;;;4957019;28;19942;-75
2022/09/19 19:31:31;;;;;;;;;;;22.00;50.00;;;;;;4957031;28;20410;-75
2022/09/19 19:33:57;;;;;;;;;;;22.00;50.00;;;;;;4957226;28;19934;-75
2022/09/19 19:36:24;;;;;;;;;;;21.90;49.90;;;;;;4957210;28;19932;-75
2022/09/19 19:38:52;;;;;;;;;;;21.90;49.90;;;;;;4957071;28;19932;-75
2022/09/19 19:41:20;;;;;;;;;;;21.90;49.90;;;;;;4956747;28;20373;-75
2022/09/19 19:43:47;;;;;;;;;;;21.90;49.90;;;;;;4957088;28;19934;-75
2022/09/19 19:46:14;;;;;;;;;;;21.90;49.80;;;;;;4957271;28;19926;-76
2022/09/19 19:48:42;;;;;;;;;;;21.90;49.90;;;;;;4957837;28;20397;-77
2022/09/19 19:51:11;;;;;;;;;;;22.00;49.90;;;;;;4960740;28;19933;-78
2022/09/19 19:53:38;;;;;;;;;;;22.00;49.90;;;;;;4962040;28;20030;-78
2022/09/19 19:56:07;;;;;;;;;;;21.90;49.80;;;;;;4962115;28;20341;-78
2022/09/19 19:58:34;;;;;;;;;;;21.90;49.80;;;;;;4962736;28;20013;-78
2022/09/19 20:01:02;;;;;;;;;;;21.90;49.80;;;;;;4961960;28;20398;-78
2022/09/19 20:03:29;;;;;;;;;;;21.90;49.80;;;;;;4962949;28;20021;-78
2022/09/19 20:05:56;;;;;;;;;;;21.90;49.80;;;;;;4963183;28;19990;-81
2022/09/19 20:08:22;;;;;;;;;;;21.90;49.80;;;;;;4960079;28;20017;-80
2022/09/19 20:10:54;;;;;;;;;;;21.90;49.80;;;;;;4959064;28;19926;-79
2022/09/19 20:13:22;;;;;;;;;;;21.90;49.80;;;;;;4957673;28;19926;-78
2022/09/19 20:15:57;;;;;;;;;;;21.90;49.80;;;;;;4957280;28;19927;-78
2022/09/19 20:18:25;;;;;;;;;;;21.90;49.80;;;;;;4957378;28;19934;-77
2022/09/19 20:20:52;;;;;;;;;;;21.90;49.90;;;;;;4956629;28;19926;-77
2022/09/19 20:23:18;;;;;;;;;;;21.90;49.90;;;;;;4957258;28;20005;-77
2022/09/19 20:25:45;;;;;;;;;;;21.90;49.90;;;;;;4957534;28;19926;-77
2022/09/19 20:28:12;;;;;;;;;;;21.90;49.90;;;;;;4956494;28;20379;-77
2022/09/19 20:30:40;;;;;;;;;;;21.90;49.90;;;;;;4957286;28;19926;-77
2022/09/19 20:33:07;;;;;;;;;;;21.90;50.00;;;;;;4956043;28;19933;-77
2022/09/19 20:35:34;;;;;;;;;;;21.90;50.00;;;;;;4958006;28;20414;-78
2022/09/19 20:38:00;;;;;;;;;;;21.90;50.00;;;;;;4957088;28;20013;-78
2022/09/19 20:40:27;;;;;;;;;;;21.90;50.00;;;;;;4957093;28;19973;-78
2022/09/19 20:42:54;;;;;;;;;;;21.90;50.00;;;;;;4956411;28;19933;-77
2022/09/19 20:45:21;;;;;;;;;;;21.90;50.10;;;;;;4955757;28;20367;-77
2022/09/19 20:47:50;;;;;;;;;;;21.90;50.10;;;;;;4955759;28;19931;-77
2022/09/19 20:50:18;;;;;;;;;;;21.90;50.10;;;;;;4955821;28;19976;-77
2022/09/19 20:52:45;;;;;;;;;;;21.90;50.20;;;;;;4956065;28;19990;-77
2022/09/19 20:55:12;;;;;;;;;;;21.90;50.20;;;;;;4956055;28;20406;-77
2022/09/19 20:57:39;;;;;;;;;;;21.90;50.20;;;;;;4956018;28;20017;-77
2022/09/19 21:00:06;;;;;;;;;;;21.90;50.20;;;;;;4956794;28;20021;-77
2022/09/19 21:02:33;;;;;;;;;;;21.90;50.20;;;;;;4956395;28;20298;-77
2022/09/19 21:05:01;;;;;;;;;;;21.90;50.20;;;;;;4959489;28;19933;-77
2022/09/19 21:07:28;;;;;;;;;;;21.90;50.30;;;;;;4960496;28;20287;-77
2022/09/19 21:09:55;;;;;;;;;;;21.90;50.30;;;;;;4959595;28;19933;-77
2022/09/19 21:12:21;;;;;;;;;;;21.90;50.90;;;;;;4959577;28;19927;-77
2022/09/19 21:14:48;;;;;;;;;;;21.90;50.30;;;;;;4959783;28;19926;-76
2022/09/19 21:17:16;;;;;;;;;;;21.90;50.30;;;;;;4959803;28;19972;-76
2022/09/19 21:19:42;;;;;;;;;;;21.90;50.30;;;;;;4959636;28;20290;-76
2022/09/19 21:22:10;;;;;;;;;;;21.90;50.40;;;;;;4959797;28;20373;-76
2022/09/19 21:24:37;;;;;;;;;;;21.90;50.40;;;;;;4960357;28;20037;-76
2022/09/19 21:27:04;;;;;;;;;;;21.90;50.40;;;;;;4960275;28;19973;-76
2022/09/19 21:29:30;;;;;;;;;;;21.80;50.30;;;;;;4959315;28;20013;-76
2022/09/19 21:31:57;;;;;;;;;;;21.90;50.40;;;;;;4959790;28;19927;-76
2022/09/19 21:34:24;;;;;;;;;;;21.80;50.30;;;;;;4959641;28;19927;-76
2022/09/19 21:36:50;;;;;;;;;;;21.90;50.40;;;;;;4959229;28;19938;-76
2022/09/19 21:39:18;;;;;;;;;;;21.90;50.40;;;;;;4958970;28;20017;-76
2022/09/19 21:41:45;;;;;;;;;;;21.90;50.40;;;;;;4959426;28;19933;-76
2022/09/19 21:44:12;;;;;;;;;;;21.80;50.30;;;;;;4959636;28;20416;-76
2022/09/19 21:46:38;;;;;;;;;;;21.80;50.30;;;;;;4958992;28;19927;-76
2022/09/19 21:49:05;;;;;;;;;;;21.80;50.30;;;;;;4958807;28;19932;-76
2022/09/19 21:51:34;;;;;;;;;;;21.90;50.40;;;;;;4958840;28;20005;-76
2022/09/19 21:54:01;;;;;;;;;;;21.80;50.30;;;;;;4959176;28;20390;-77
2022/09/19 21:56:30;;;;;;;;;;;21.90;50.40;;;;;;4959076;28;19982;-77
2022/09/19 21:58:57;;;;;;;;;;;21.80;50.30;;;;;;4958947;28;19927;-76
2022/09/19 22:01:24;;;;;;;;;;;21.80;50.30;;;;;;4958579;28;19933;-76
2022/09/19 22:03:51;;;;;;;;;;;21.80;50.30;;;;;;4958651;28;20382;-76
2022/09/19 22:06:18;;;;;;;;;;;21.80;50.30;;;;;;4958879;28;19962;-77
2022/09/19 22:08:45;;;;;;;;;;;21.80;50.30;;;;;;4959206;28;19927;-77
2022/09/19 22:11:14;;;;;;;;;;;21.80;50.20;;;;;;4958785;28;19926;-77
